Time;durP1;ratioP1;P1;durP2;ratioP2;P2;SDS_P1;SDS_P2;PMS_P1;PMS_P2;Temp;Humidity;BMP_temperature;BMP_pressure;BME280_temperature;BME280_humidity;BME280_pressure;Samples;Min_cycle;Max_cycle;Signal;HPM_P1;HPM_P2
2022/02/06 00:00:28;;;;;;;8.02;1.85;;;3.30;99.90;;;;;;5081635;28;20071;-61
2022/02/06 00:03:14;;;;;;;6.88;1.60;;;3.30;99.90;;;;;;5075849;28;20106;-60
2022/02/06 00:06:01;;;;;;;7.60;1.67;;;3.30;99.90;;;;;;5062136;28;20028;-62
2022/02/06 00:08:46;;;;;;;5.85;1.35;;;3.30;99.90;;;;;;5088427;28;20671;-60
2022/02/06 00:11:32;;;;;;;4.50;1.92;;;3.30;99.90;;;;;;5074865;28;20032;-60
2022/02/06 00:14:18;;;;;;;5.83;1.77;;;3.30;99.90;;;;;;5071136;28;20025;-60
2022/02/06 00:17:05;;;;;;;3.45;1.38;;;3.30;99.90;;;;;;5069289;28;20721;-60
2022/02/06 00:19:51;;;;;;;5.30;1.45;;;3.30;99.90;;;;;;5073660;28;20036;-59
2022/02/06 00:25:34;;;;;;;6.07;1.95;;;3.30;99.90;;;;;;5050872;28;20300;-59
2022/02/06 00:28:34;;;;;;;7.82;1.73;;;3.30;99.90;;;;;;5060710;28;20022;-63
2022/02/06 00:31:32;;;;;;;7.20;1.85;;;3.30;99.90;;;;;;5054203;28;20090;-61
2022/02/06 00:34:45;;;;;;;4.95;1.60;;;3.30;99.90;;;;;;5057709;28;20024;-61
2022/02/06 00:43:24;;;;;;;7.85;1.58;;;3.30;99.90;;;;;;5066271;28;20028;-60
2022/02/06 00:46:12;;;;;;;4.90;1.80;;;3.20;99.90;;;;;;5051761;28;20035;-61
2022/02/06 00:49:01;;;;;;;6.35;1.83;;;3.20;99.90;;;;;;5063338;28;20849;-61
2022/02/06 00:52:00;;;;;;;4.50;1.70;;;3.20;99.90;;;;;;5057167;28;20025;-61
2022/02/06 00:54:46;;;;;;;5.43;1.92;;;3.20;99.90;;;;;;5049810;28;20024;-62
2022/02/06 00:57:32;;;;;;;3.33;1.50;;;3.20;99.90;;;;;;5049338;28;20124;-61
2022/02/06 01:00:18;;;;;;;6.25;1.65;;;3.10;99.90;;;;;;5054271;28;20033;-61
2022/02/06 01:03:04;;;;;;;2.55;1.25;;;3.10;99.90;;;;;;5058939;28;20032;-62
2022/02/06 01:05:50;;;;;;;2.65;1.30;;;3.10;99.90;;;;;;5071349;28;20032;-61
2022/02/06 01:08:36;;;;;;;2.25;1.20;;;3.10;99.90;;;;;;5075007;28;20530;-60
2022/02/06 01:11:22;;;;;;;1.45;1.00;;;3.10;99.90;;;;;;5073997;28;20036;-61
2022/02/06 01:17:18;;;;;;;2.33;1.77;;;3.00;99.90;;;;;;5073334;28;20267;-61
2022/02/06 01:20:13;;;;;;;2.25;0.75;;;3.00;99.90;;;;;;5067127;28;20068;-59
2022/02/06 01:23:06;;;;;;;2.25;0.85;;;3.00;99.90;;;;;;5074080;28;20042;-61
2022/02/06 01:26:00;;;;;;;1.00;0.63;;;3.00;99.90;;;;;;5071612;28;20028;-61
2022/02/06 01:28:52;;;;;;;1.60;0.80;;;2.90;99.90;;;;;;5073059;28;20036;-60
2022/02/06 01:31:52;;;;;;;2.10;0.90;;;2.90;99.90;;;;;;5061316;28;20412;-60
2022/02/06 01:34:50;;;;;;;1.25;0.70;;;2.90;99.90;;;;;;5059030;28;20031;-61
2022/02/06 01:37:48;;;;;;;1.73;0.85;;;2.90;99.90;;;;;;5059518;28;20070;-61
2022/02/06 01:40:54;;;;;;;3.30;0.70;;;2.90;99.90;;;;;;5054428;28;20036;-61
2022/02/06 01:43:48;;;;;;;2.15;0.70;;;2.90;99.90;;;;;;5063320;28;20096;-61
2022/02/06 02:48:44;;;;;;;4.00;1.20;;;3.30;99.90;;;;;;5064879;28;20036;-62
2022/02/06 02:51:35;;;;;;;2.25;1.45;;;3.30;99.90;;;;;;5060355;28;20040;-61
2022/02/06 02:54:25;;;;;;;2.30;1.25;;;3.30;99.90;;;;;;5047237;28;20037;-61
2022/02/06 02:57:22;;;;;;;5.07;1.40;;;3.30;99.90;;;;;;5057581;28;20036;-61
2022/02/06 03:00:24;;;;;;;1.33;1.00;;;3.40;99.90;;;;;;5039659;28;20043;-62
2022/02/06 03:03:17;;;;;;;1.85;0.93;;;3.40;99.90;;;;;;5061792;28;20146;-61
2022/02/06 03:06:06;;;;;;;1.88;1.30;;;3.40;99.90;;;;;;5046717;28;20032;-61
2022/02/06 03:08:53;;;;;;;3.65;0.98;;;3.40;99.90;;;;;;5063974;28;20058;-62
2022/02/06 03:11:40;;;;;;;4.15;1.10;;;3.40;99.90;;;;;;5059767;28;20059;-61
2022/02/06 03:14:39;;;;;;;3.25;1.20;;;3.40;99.90;;;;;;5057693;28;20039;-61
2022/02/06 03:17:38;;;;;;;1.27;0.90;;;3.40;99.90;;;;;;5041460;28;20694;-60
2022/02/06 03:20:24;;;;;;;1.77;0.90;;;3.50;99.90;;;;;;5057687;28;20032;-62
2022/02/06 03:23:11;;;;;;;4.97;0.87;;;3.40;99.90;;;;;;5051818;28;20028;-61
2022/02/06 03:25:57;;;;;;;1.02;0.70;;;3.40;99.90;;;;;;5049796;28;20033;-60
2022/02/06 03:28:43;;;;;;;7.18;1.00;;;3.40;99.90;;;;;;5055283;28;20024;-61
2022/02/06 03:31:29;;;;;;;1.23;0.80;;;3.40;99.90;;;;;;5059908;28;20710;-61
2022/02/06 03:34:16;;;;;;;3.00;1.85;;;3.40;99.90;;;;;;5048972;28;20024;-61
2022/02/06 03:37:02;;;;;;;2.45;0.93;;;3.40;99.90;;;;;;5048757;28;20716;-62
2022/02/06 03:39:52;;;;;;;1.15;0.70;;;3.40;99.90;;;;;;5061644;28;20032;-61
2022/02/06 03:42:53;;;;;;;2.40;0.80;;;3.40;99.90;;;;;;5042407;28;20051;-61
2022/02/06 03:48:34;;;;;;;1.33;0.80;;;3.30;99.90;;;;;;5060032;28;20020;-62
2022/02/06 03:51:30;;;;;;;2.20;0.80;;;3.30;99.90;;;;;;5045839;28;20036;-62
2022/02/06 03:54:17;;;;;;;0.57;0.50;;;3.30;99.90;;;;;;5049506;28;20020;-62
2022/02/06 03:57:03;;;;;;;1.63;0.77;;;3.20;99.90;;;;;;5062586;28;20330;-61
2022/02/06 03:59:49;;;;;;;1.35;0.63;;;3.30;99.90;;;;;;5059707;28;20269;-61
2022/02/06 04:02:35;;;;;;;0.70;0.60;;;3.30;99.90;;;;;;5063125;28;20032;-62
2022/02/06 04:05:21;;;;;;;0.60;0.60;;;3.30;99.90;;;;;;5060598;28;20047;-60
2022/02/06 04:08:08;;;;;;;1.97;0.70;;;3.30;99.90;;;;;;5063691;28;20032;-59
2022/02/06 04:10:56;;;;;;;1.25;0.80;;;3.30;99.90;;;;;;5068272;28;20039;-61
2022/02/06 04:16:52;;;;;;;2.85;0.70;;;3.30;99.90;;;;;;5059841;28;20047;-60
2022/02/06 04:19:38;;;;;;;6.35;1.02;;;3.30;99.90;;;;;;5071552;28;20028;-61
2022/02/06 04:22:24;;;;;;;1.73;0.80;;;3.30;99.90;;;;;;5056377;28;20119;-61
2022/02/06 04:25:10;;;;;;;2.00;0.80;;;3.20;99.90;;;;;;5048675;28;20035;-60
2022/02/06 04:27:56;;;;;;;1.25;0.57;;;3.20;99.90;;;;;;5057103;28;20037;-61
2022/02/06 04:30:42;;;;;;;0.67;0.50;;;3.20;99.90;;;;;;5060247;28;20112;-61
2022/02/06 04:33:28;;;;;;;1.57;0.60;;;3.30;99.90;;;;;;5060031;28;20106;-60
2022/02/06 04:36:14;;;;;;;2.90;0.80;;;3.30;99.90;;;;;;5053804;28;20439;-61
2022/02/06 04:39:27;;;;;;;1.17;0.75;;;3.30;99.90;;;;;;5061508;28;20121;-60
2022/02/06 04:42:26;;;;;;;1.00;0.50;;;3.30;99.90;;;;;;5055219;28;20037;-61
2022/02/06 04:55:02;;;;;;;1.13;0.70;;;3.20;99.90;;;;;;5018777;28;20110;-60
2022/02/06 05:19:57;;;;;;;0.63;0.30;;;3.30;99.90;;;;;;5060932;28;19944;-61
2022/02/06 05:25:58;;;;;;;1.10;0.47;;;3.30;99.90;;;;;;5059997;28;20040;-61
2022/02/06 05:28:50;;;;;;;0.40;0.35;;;3.20;99.90;;;;;;5067521;28;20032;-61
2022/02/06 05:31:55;;;;;;;0.73;0.30;;;3.20;99.90;;;;;;5055035;28;20812;-60
2022/02/06 05:34:41;;;;;;;0.43;0.20;;;3.20;99.90;;;;;;5062360;28;20024;-59
2022/02/06 05:37:27;;;;;;;1.37;0.40;;;3.10;99.90;;;;;;5061576;28;20059;-60
2022/02/06 05:40:13;;;;;;;0.50;0.30;;;3.10;99.90;;;;;;5043567;28;20274;-60
2022/02/06 05:42:59;;;;;;;0.77;0.28;;;3.10;99.90;;;;;;5062058;28;20020;-61
2022/02/06 05:45:45;;;;;;;0.75;0.35;;;3.00;99.90;;;;;;5057274;28;20037;-59
2022/02/06 05:48:31;;;;;;;0.20;0.20;;;3.00;99.90;;;;;;5060971;28;20033;-60
2022/02/06 05:51:17;;;;;;;0.87;0.30;;;3.00;99.90;;;;;;5054708;28;20013;-60
2022/02/06 05:54:04;;;;;;;0.30;0.30;;;3.00;99.90;;;;;;5051386;28;20086;-61
2022/02/06 05:56:50;;;;;;;2.20;0.20;;;3.00;99.90;;;;;;5056306;28;20036;-61
2022/02/06 05:59:36;;;;;;;1.23;0.40;;;3.00;99.90;;;;;;5056003;28;20622;-60
2022/02/06 06:02:22;;;;;;;0.30;0.20;;;2.90;99.90;;;;;;5056007;28;20854;-59
2022/02/06 06:05:09;;;;;;;0.23;0.20;;;2.90;99.90;;;;;;5054949;28;20661;-60
2022/02/06 06:07:55;;;;;;;0.38;0.30;;;3.00;99.90;;;;;;5043334;28;20035;-60
2022/02/06 06:10:42;;;;;;;0.20;0.20;;;3.00;99.90;;;;;;5056928;28;20600;-61
2022/02/06 06:13:28;;;;;;;2.83;0.35;;;3.00;99.90;;;;;;5056136;28;20682;-61
2022/02/06 06:16:14;;;;;;;0.40;0.40;;;3.00;99.90;;;;;;5054980;28;20034;-60
2022/02/06 06:19:02;;;;;;;0.28;0.28;;;3.10;99.90;;;;;;5040135;28;20715;-59
2022/02/06 06:21:53;;;;;;;0.55;0.30;;;3.10;99.90;;;;;;5056554;28;20047;-60
2022/02/06 06:24:43;;;;;;;0.35;0.25;;;3.10;99.90;;;;;;5049061;28;20580;-61
2022/02/06 06:27:29;;;;;;;0.45;0.30;;;3.10;99.90;;;;;;5055262;28;20028;-60
2022/02/06 06:30:15;;;;;;;0.57;0.50;;;3.20;99.90;;;;;;5058653;28;20028;-60
2022/02/06 06:33:03;;;;;;;0.20;0.20;;;3.20;99.90;;;;;;5056653;28;20691;-60
2022/02/06 06:35:51;;;;;;;1.10;0.30;;;3.20;99.90;;;;;;5061865;28;20108;-61
2022/02/06 06:38:38;;;;;;;1.67;0.32;;;3.20;99.90;;;;;;5066521;28;20036;-60
2022/02/06 06:41:24;;;;;;;3.25;0.50;;;3.20;99.90;;;;;;5057341;28;20032;-61
2022/02/06 06:44:09;;;;;;;1.23;0.60;;;3.30;99.90;;;;;;5055244;28;20036;-61
2022/02/06 06:46:55;;;;;;;0.60;0.47;;;3.30;99.90;;;;;;5052548;28;20646;-64
2022/02/06 06:49:41;;;;;;;3.03;0.53;;;3.30;99.90;;;;;;5051519;28;20028;-61
2022/02/06 06:52:28;;;;;;;1.20;0.40;;;3.30;99.90;;;;;;5052428;28;20082;-63
2022/02/06 06:55:18;;;;;;;0.60;0.30;;;3.40;99.90;;;;;;5045263;28;20041;-62
2022/02/06 06:58:14;;;;;;;0.73;0.40;;;3.40;99.90;;;;;;5053121;28;20101;-61
2022/02/06 07:03:52;;;;;;;0.63;0.40;;;3.50;99.90;;;;;;5051797;28;20051;-62
2022/02/06 07:06:38;;;;;;;0.80;0.35;;;3.50;99.90;;;;;;5052159;28;20553;-60
2022/02/06 07:09:23;;;;;;;0.68;0.40;;;3.50;99.90;;;;;;5049914;28;20565;-62
2022/02/06 07:12:13;;;;;;;0.30;0.30;;;3.50;99.90;;;;;;5051314;28;20029;-62
2022/02/06 07:15:00;;;;;;;0.60;0.30;;;3.60;99.90;;;;;;5045764;28;20039;-61
2022/02/06 07:17:46;;;;;;;0.40;0.30;;;3.60;99.90;;;;;;5059796;28;20111;-62
2022/02/06 07:20:34;;;;;;;0.30;0.30;;;3.60;99.90;;;;;;5043715;28;20029;-60
2022/02/06 07:23:20;;;;;;;0.70;0.45;;;3.60;99.90;;;;;;5052036;28;20286;-62
2022/02/06 07:26:13;;;;;;;0.63;0.35;;;3.60;99.90;;;;;;5048870;28;20435;-62
2022/02/06 07:29:01;;;;;;;0.43;0.20;;;3.60;99.90;;;;;;5062611;28;20063;-60
2022/02/06 07:31:47;;;;;;;0.57;0.30;;;3.70;99.90;;;;;;5041373;28;20078;-61
2022/02/06 07:34:33;;;;;;;0.30;0.30;;;3.70;99.90;;;;;;5053353;28;20036;-61
2022/02/06 07:37:19;;;;;;;0.30;0.30;;;3.70;99.90;;;;;;5042151;28;20029;-61
2022/02/06 07:40:04;;;;;;;0.30;0.30;;;3.70;99.90;;;;;;5067067;28;20298;-61
2022/02/06 07:42:49;;;;;;;0.30;0.20;;;3.70;99.90;;;;;;5061371;28;20121;-62
2022/02/06 07:45:36;;;;;;;0.57;0.30;;;3.70;99.90;;;;;;5082570;28;20042;-60
2022/02/06 07:48:20;;;;;;;0.43;0.30;;;3.70;99.90;;;;;;5086736;28;20082;-61
2022/02/06 07:51:04;;;;;;;0.38;0.30;;;3.80;99.90;;;;;;5084313;28;20128;-61
2022/02/06 07:53:50;;;;;;;0.20;0.20;;;3.80;99.90;;;;;;5076452;28;20032;-60
2022/02/06 07:56:36;;;;;;;0.60;0.40;;;3.80;99.90;;;;;;5073747;28;20789;-61
2022/02/06 07:59:22;;;;;;;0.50;0.30;;;3.80;99.90;;;;;;5085610;28;20043;-61
2022/02/06 08:02:06;;;;;;;0.30;0.30;;;3.90;99.90;;;;;;5087689;28;20046;-61
2022/02/06 08:04:51;;;;;;;0.45;0.20;;;3.90;99.90;;;;;;5085942;28;20723;-62
2022/02/06 08:07:37;;;;;;;0.98;0.40;;;3.90;99.90;;;;;;5086791;28;20122;-61
2022/02/06 08:10:22;;;;;;;0.30;0.30;;;3.90;99.90;;;;;;5085916;28;20040;-61
2022/02/06 08:13:11;;;;;;;0.40;0.30;;;3.90;99.90;;;;;;5088919;28;20419;-61
2022/02/06 08:15:55;;;;;;;0.50;0.30;;;3.90;99.90;;;;;;5086639;28;20063;-59
2022/02/06 08:18:40;;;;;;;1.52;0.38;;;3.90;99.90;;;;;;5088493;28;20042;-61
2022/02/06 08:21:25;;;;;;;0.30;0.30;;;4.00;99.90;;;;;;5088362;28;20085;-61
2022/02/06 08:24:09;;;;;;;0.88;0.43;;;4.00;99.90;;;;;;5071326;28;20177;-62
2022/02/06 08:26:53;;;;;;;0.47;0.40;;;3.90;99.90;;;;;;5088209;28;20035;-61
2022/02/06 08:29:40;;;;;;;1.27;0.40;;;3.90;99.90;;;;;;5070219;28;20377;-61
2022/02/06 08:32:27;;;;;;;0.20;0.20;;;3.90;99.90;;;;;;5077437;28;20054;-60
2022/02/06 08:35:13;;;;;;;0.90;0.40;;;4.00;99.90;;;;;;5067274;28;20431;-61
2022/02/06 08:38:30;;;;;;;1.23;0.40;;;4.00;99.90;;;;;;5073780;28;20031;-60
2022/02/06 08:41:16;;;;;;;1.45;0.30;;;3.90;99.90;;;;;;5068763;28;20039;-61
2022/02/06 08:44:04;;;;;;;0.15;0.15;;;4.00;99.90;;;;;;5074546;28;20028;-62
2022/02/06 08:46:49;;;;;;;0.20;0.20;;;4.00;99.90;;;;;;5075323;28;20040;-62
2022/02/06 08:49:37;;;;;;;1.83;0.30;;;4.00;99.90;;;;;;5072376;28;20785;-61
2022/02/06 08:52:23;;;;;;;0.40;0.40;;;4.00;99.90;;;;;;5073510;28;20035;-60
2022/02/06 08:55:11;;;;;;;0.77;0.30;;;4.10;99.90;;;;;;5064484;28;20028;-62
2022/02/06 08:57:57;;;;;;;0.30;0.20;;;4.10;99.90;;;;;;5075851;28;20039;-61
2022/02/06 09:00:43;;;;;;;0.20;0.20;;;4.10;99.90;;;;;;5075825;28;20189;-61
2022/02/06 09:03:29;;;;;;;0.40;0.30;;;4.10;99.90;;;;;;5072069;28;20035;-62
2022/02/06 09:06:15;;;;;;;0.40;0.28;;;4.10;99.90;;;;;;5068075;28;20039;-61
2022/02/06 09:09:01;;;;;;;0.22;0.20;;;4.10;99.90;;;;;;5072368;28;20036;-61
2022/02/06 09:11:47;;;;;;;1.80;0.30;;;4.10;99.90;;;;;;5074409;28;20412;-60
2022/02/06 09:14:33;;;;;;;0.52;0.30;;;4.10;99.90;;;;;;5070698;28;20101;-62
2022/02/06 09:17:20;;;;;;;0.20;0.20;;;4.20;99.90;;;;;;5071689;28;20719;-62
2022/02/06 09:20:06;;;;;;;0.50;0.25;;;4.10;99.90;;;;;;5046926;28;20107;-61
2022/02/06 09:22:52;;;;;;;0.50;0.30;;;4.10;99.90;;;;;;5049366;28;20065;-61
2022/02/06 09:25:38;;;;;;;3.83;0.32;;;4.10;99.90;;;;;;5031102;28;20024;-61
2022/02/06 09:28:24;;;;;;;0.55;0.20;;;4.10;99.90;;;;;;5061603;28;20058;-62
2022/02/06 09:31:11;;;;;;;0.67;0.30;;;4.20;99.90;;;;;;5051121;28;20021;-61
2022/02/06 09:36:43;;;;;;;2.28;0.40;;;4.20;99.90;;;;;;5058228;28;20735;-62
2022/02/06 09:39:33;;;;;;;0.93;0.30;;;4.30;99.90;;;;;;5060198;28;20044;-61
2022/02/06 09:42:20;;;;;;;1.25;0.20;;;4.30;99.90;;;;;;5056609;28;20036;-61
2022/02/06 09:45:07;;;;;;;0.30;0.20;;;4.30;99.90;;;;;;5047941;28;20087;-62
2022/02/06 09:47:53;;;;;;;0.40;0.30;;;4.30;99.90;;;;;;5061796;28;20028;-61
2022/02/06 09:50:42;;;;;;;0.85;0.35;;;4.30;99.90;;;;;;5057173;28;20612;-62
2022/02/06 09:53:29;;;;;;;1.50;0.40;;;4.30;99.90;;;;;;5052046;28;20097;-62
2022/02/06 09:56:17;;;;;;;0.40;0.20;;;4.30;99.90;;;;;;5043080;28;20044;-62
2022/02/06 09:59:04;;;;;;;0.50;0.32;;;4.20;99.90;;;;;;5051230;28;20033;-61
2022/02/06 10:01:55;;;;;;;1.48;0.20;;;4.30;99.90;;;;;;5056781;28;20043;-61
2022/02/06 10:04:41;;;;;;;0.43;0.20;;;4.30;99.90;;;;;;5044192;28;20769;-62
2022/02/06 10:07:37;;;;;;;0.20;0.20;;;4.30;99.90;;;;;;5072142;28;20085;-62
2022/02/06 10:10:25;;;;;;;0.22;0.22;;;4.30;99.90;;;;;;5070095;28;20035;-61
2022/02/06 10:13:11;;;;;;;0.30;0.30;;;4.30;99.90;;;;;;5073918;28;20477;-62
2022/02/06 10:15:57;;;;;;;1.63;0.47;;;4.30;99.90;;;;;;5063646;28;20607;-60
2022/02/06 10:18:45;;;;;;;0.20;0.20;;;4.30;99.90;;;;;;5073378;28;20032;-63
2022/02/06 10:21:33;;;;;;;0.20;0.20;;;4.30;99.90;;;;;;5073572;28;20040;-61
2022/02/06 10:24:26;;;;;;;1.25;0.20;;;4.30;99.90;;;;;;5067123;28;20042;-61
2022/02/06 10:27:21;;;;;;;0.30;0.30;;;4.30;99.90;;;;;;5066311;28;20039;-61
2022/02/06 10:30:19;;;;;;;0.30;0.28;;;4.30;99.90;;;;;;5046537;28;20116;-62
2022/02/06 10:33:09;;;;;;;;;;;4.30;99.90;;;;;;5069670;28;20031;-60
2022/02/06 10:35:57;;;;;;;0.20;0.20;;;4.30;99.90;;;;;;5077380;28;19915;-62
2022/02/06 10:38:45;;;;;;;0.95;0.30;;;4.30;99.90;;;;;;5071345;28;20043;-61
2022/02/06 10:41:32;;;;;;;0.82;0.35;;;4.30;99.90;;;;;;5072005;28;20040;-61
2022/02/06 10:44:20;;;;;;;0.85;0.25;;;4.30;99.90;;;;;;5067720;28;20054;-62
2022/02/06 10:47:06;;;;;;;0.22;0.20;;;4.30;99.90;;;;;;5070112;28;20612;-61
2022/02/06 10:50:07;;;;;;;0.50;0.30;;;4.30;99.90;;;;;;5073119;28;20028;-63
2022/02/06 10:53:09;;;;;;;0.28;0.22;;;4.30;99.90;;;;;;5072595;28;20020;-62
2022/02/06 10:55:58;;;;;;;0.28;0.20;;;4.30;99.90;;;;;;5071709;28;20531;-61
2022/02/06 10:58:56;;;;;;;0.20;0.20;;;4.30;99.90;;;;;;5073157;28;20024;-62
2022/02/06 11:01:42;;;;;;;0.20;0.20;;;4.20;99.90;;;;;;5072504;28;20020;-62
2022/02/06 11:04:33;;;;;;;0.30;0.22;;;4.20;99.90;;;;;;5067507;28;20557;-62
2022/02/06 11:07:19;;;;;;;0.10;0.10;;;4.10;99.90;;;;;;5072495;28;20400;-61
2022/02/06 11:10:13;;;;;;;2.65;0.20;;;4.00;99.90;;;;;;5071690;28;20027;-59
2022/02/06 11:13:04;;;;;;;0.20;0.20;;;4.00;99.90;;;;;;5071635;28;20028;-61
2022/02/06 11:15:50;;;;;;;0.20;0.20;;;4.00;99.90;;;;;;5067692;28;20064;-60
2022/02/06 11:18:51;;;;;;;0.40;0.30;;;4.00;99.90;;;;;;5067197;28;20667;-60
2022/02/06 11:21:37;;;;;;;0.32;0.25;;;3.90;99.90;;;;;;5053625;28;20039;-61
2022/02/06 11:24:23;;;;;;;0.20;0.20;;;3.90;99.90;;;;;;5083335;28;20110;-61
2022/02/06 11:27:09;;;;;;;0.20;0.20;;;3.90;99.90;;;;;;5070576;28;20292;-59
2022/02/06 11:29:56;;;;;;;20.03;5.03;;;3.90;99.90;;;;;;5070526;28;20133;-59
2022/02/06 11:32:42;;;;;;;98.43;17.05;;;3.80;99.90;;;;;;5070164;28;20115;-60
2022/02/06 11:35:30;;;;;;;3.20;1.00;;;3.80;99.90;;;;;;5066479;28;20088;-62
2022/02/06 11:43:43;;;;;;;3.00;0.85;;;3.80;99.90;;;;;;5071286;28;20090;-62
2022/02/06 11:45:05;;;;;;;6.28;0.90;;;3.80;99.90;;;;;;5069270;28;20036;-59
2022/02/06 11:47:57;;;;;;;2.45;0.60;;;3.70;99.90;;;;;;5084334;28;20032;-60
2022/02/06 11:50:49;;;;;;;2.72;0.60;;;3.70;99.90;;;;;;5070408;28;20052;-60
2022/02/06 11:53:39;;;;;;;1.10;0.22;;;3.70;99.90;;;;;;5072924;28;20039;-60
2022/02/06 11:56:37;;;;;;;0.73;0.45;;;3.60;99.90;;;;;;5071251;28;20024;-61
2022/02/06 11:59:23;;;;;;;1.30;0.28;;;3.60;99.90;;;;;;5054246;28;20725;-61
2022/02/06 12:02:26;;;;;;;2.88;0.30;;;3.60;99.90;;;;;;5070553;28;20192;-61
2022/02/06 12:05:13;;;;;;;1.73;0.32;;;3.60;99.90;;;;;;5069007;28;20038;-60
2022/02/06 12:08:07;;;;;;;0.73;0.30;;;3.50;99.90;;;;;;5071247;28;20531;-60
2022/02/06 12:10:59;;;;;;;0.52;0.22;;;3.50;99.90;;;;;;5072455;28;20024;-61
2022/02/06 12:13:45;;;;;;;0.35;0.20;;;3.50;99.90;;;;;;5072274;28;20801;-60
2022/02/06 12:16:38;;;;;;;0.75;0.30;;;3.50;99.90;;;;;;5076122;28;20038;-60
2022/02/06 12:19:24;;;;;;;3.17;0.30;;;3.50;99.90;;;;;;5071864;28;20032;-61
2022/02/06 12:22:28;;;;;;;1.98;0.63;;;3.40;99.90;;;;;;5075827;28;20106;-61
2022/02/06 12:25:34;;;;;;;1.85;0.73;;;3.40;99.90;;;;;;5066985;28;20171;-60
2022/02/06 12:28:26;;;;;;;2.25;0.50;;;3.40;99.90;;;;;;5070335;28;20031;-57
2022/02/06 12:31:15;;;;;;;0.47;0.20;;;3.40;99.90;;;;;;5069873;28;20020;-61
2022/02/06 12:39:40;;;;;;;1.27;0.40;;;3.30;99.90;;;;;;5074686;28;20172;-61
2022/02/06 12:42:36;;;;;;;0.50;0.30;;;3.30;99.90;;;;;;5074958;28;20127;-59
2022/02/06 12:45:23;;;;;;;0.20;0.20;;;3.20;99.90;;;;;;5069478;28;20119;-60
2022/02/06 12:48:09;;;;;;;0.17;0.17;;;3.10;99.90;;;;;;5074644;28;20062;-60
2022/02/06 12:50:55;;;;;;;0.57;0.30;;;3.10;99.90;;;;;;5065342;28;20070;-60
2022/02/06 12:53:41;;;;;;;0.22;0.20;;;3.10;99.90;;;;;;5075054;28;20032;-59
2022/02/06 12:56:29;;;;;;;0.20;0.20;;;3.10;99.90;;;;;;5074362;28;20036;-60
2022/02/06 12:59:22;;;;;;;0.70;0.20;;;3.20;99.90;;;;;;5075121;28;20768;-60
2022/02/06 13:02:09;;;;;;;0.15;0.15;;;3.10;99.90;;;;;;5073260;28;20462;-61
2022/02/06 13:04:59;;;;;;;;;;;3.10;99.90;;;;;;5073872;28;20032;-61
2022/02/06 13:07:46;;;;;;;0.40;0.20;;;3.00;99.90;;;;;;5073259;28;20076;-61
2022/02/06 13:10:32;;;;;;;0.20;0.20;;;3.10;99.90;;;;;;5059455;28;20035;-61
2022/02/06 13:13:21;;;;;;;0.10;0.10;;;3.00;99.90;;;;;;5069671;28;20016;-60
2022/02/06 13:16:24;;;;;;;0.30;0.20;;;3.00;99.90;;;;;;5073993;28;20150;-60
2022/02/06 13:28:22;;;;;;;0.20;0.20;;;3.00;99.90;;;;;;5073869;28;20111;-61
2022/02/06 13:31:32;;;;;;;0.80;0.20;;;3.00;99.90;;;;;;5075565;28;20047;-60
2022/02/06 13:34:43;;;;;;;0.68;0.20;;;3.00;99.90;;;;;;5068863;28;20036;-60
2022/02/06 13:37:42;;;;;;;1.08;0.30;;;3.00;99.90;;;;;;5072389;28;20115;-60
2022/02/06 13:40:31;;;;;;;0.17;0.17;;;3.00;99.90;;;;;;5070297;28;20039;-60
2022/02/06 13:43:25;;;;;;;0.10;0.10;;;3.10;99.90;;;;;;5073674;28;20479;-59
2022/02/06 13:46:17;;;;;;;0.20;0.20;;;3.10;99.90;;;;;;5069446;28;20462;-60
2022/02/06 13:49:03;;;;;;;0.40;0.20;;;3.20;99.90;;;;;;5059504;28;20659;-60
2022/02/06 13:51:51;;;;;;;;;;;3.20;99.90;;;;;;5073695;28;20028;-60
2022/02/06 13:54:39;;;;;;;0.47;0.30;;;3.20;99.90;;;;;;5079383;28;19918;-59
2022/02/06 13:57:26;;;;;;;0.40;0.20;;;3.30;99.90;;;;;;5072669;28;20064;-61
2022/02/06 14:00:17;;;;;;;0.20;0.20;;;3.30;99.90;;;;;;5074728;28;20028;-60
2022/02/06 14:03:03;;;;;;;0.30;0.30;;;3.30;99.90;;;;;;5073104;28;20086;-60
2022/02/06 14:05:51;;;;;;;0.33;0.30;;;3.30;99.90;;;;;;5069418;28;20040;-60
2022/02/06 14:08:39;;;;;;;0.55;0.22;;;3.30;99.90;;;;;;5072959;28;20035;-61
2022/02/06 14:11:29;;;;;;;0.47;0.20;;;3.40;99.90;;;;;;5072650;28;20115;-60
2022/02/06 14:14:20;;;;;;;0.43;0.20;;;3.40;99.90;;;;;;5071341;28;20028;-61
2022/02/06 14:17:08;;;;;;;0.20;0.20;;;3.50;99.90;;;;;;5074186;28;20055;-60
2022/02/06 14:19:57;;;;;;;0.57;0.30;;;3.50;99.90;;;;;;5072814;28;20094;-62
2022/02/06 14:22:55;;;;;;;0.90;0.20;;;3.50;99.90;;;;;;5076310;28;20592;-60
2022/02/06 14:25:45;;;;;;;0.20;0.20;;;3.50;99.90;;;;;;5072014;28;20036;-59
2022/02/06 14:28:36;;;;;;;0.50;0.30;;;3.50;99.90;;;;;;5066445;28;20036;-59
2022/02/06 14:31:28;;;;;;;0.65;0.13;;;3.60;99.90;;;;;;5071119;28;20032;-61
2022/02/06 14:34:16;;;;;;;1.90;0.20;;;3.60;99.90;;;;;;5074988;28;20036;-60
2022/02/06 14:37:12;;;;;;;0.45;0.20;;;3.60;99.90;;;;;;5072266;28;20106;-58
2022/02/06 14:40:26;;;;;;;2.08;0.28;;;3.60;99.90;;;;;;5065231;28;20043;-61
2022/02/06 14:43:14;;;;;;;2.75;0.20;;;3.60;99.90;;;;;;5072918;28;20038;-60
2022/02/06 14:46:00;;;;;;;0.95;0.20;;;3.50;99.90;;;;;;5056470;28;20634;-60
2022/02/06 14:48:46;;;;;;;0.20;0.20;;;3.50;99.90;;;;;;5072703;28;20032;-61
2022/02/06 14:51:36;;;;;;;0.63;0.20;;;3.40;99.90;;;;;;5072872;28;20304;-61
2022/02/06 14:54:31;;;;;;;0.28;0.20;;;3.40;99.90;;;;;;5074638;28;20070;-61
2022/02/06 14:57:18;;;;;;;0.20;0.10;;;3.40;99.90;;;;;;5072934;28;20519;-61
2022/02/06 15:00:07;;;;;;;0.52;0.32;;;3.30;99.90;;;;;;5064531;28;20047;-61
2022/02/06 15:02:53;;;;;;;0.30;0.20;;;3.30;99.90;;;;;;5073483;28;20084;-62
2022/02/06 15:05:39;;;;;;;0.40;0.20;;;3.30;99.90;;;;;;5070258;28;20043;-60
2022/02/06 15:08:25;;;;;;;0.93;0.20;;;3.30;99.90;;;;;;5069790;28;20060;-59
2022/02/06 15:11:11;;;;;;;0.33;0.27;;;3.40;99.90;;;;;;5045575;28;20179;-61
2022/02/06 15:13:57;;;;;;;0.43;0.20;;;3.50;99.90;;;;;;5072081;28;20258;-59
2022/02/06 15:16:45;;;;;;;0.35;0.25;;;3.50;99.90;;;;;;5071833;28;20269;-61
2022/02/06 15:19:32;;;;;;;0.38;0.20;;;3.50;99.90;;;;;;5071036;28;20533;-61
2022/02/06 15:22:18;;;;;;;0.38;0.28;;;3.60;99.90;;;;;;5072798;28;20036;-61
2022/02/06 15:25:05;;;;;;;0.68;0.30;;;3.60;99.90;;;;;;5071452;28;20966;-60
2022/02/06 15:27:51;;;;;;;0.30;0.30;;;3.50;99.90;;;;;;5072779;28;20051;-61
2022/02/06 15:30:37;;;;;;;2.33;0.40;;;3.50;99.90;;;;;;5072757;28;20032;-60
2022/02/06 15:33:24;;;;;;;0.30;0.30;;;3.50;99.90;;;;;;5069133;28;20043;-60
2022/02/06 15:36:10;;;;;;;;;;;3.50;99.90;;;;;;5072605;28;20107;-62
2022/02/06 15:38:56;;;;;;;0.38;0.30;;;3.40;99.90;;;;;;5069678;28;19919;-59
2022/02/06 15:41:42;;;;;;;1.92;0.40;;;3.40;99.90;;;;;;5072538;28;20036;-60
2022/02/06 15:44:28;;;;;;;0.60;0.30;;;3.40;99.90;;;;;;5070282;28;20124;-61
2022/02/06 15:47:15;;;;;;;0.30;0.30;;;3.40;99.90;;;;;;5074801;28;20558;-60
2022/02/06 15:50:01;;;;;;;0.60;0.40;;;3.40;99.90;;;;;;5067037;28;20261;-59
2022/02/06 15:52:47;;;;;;;0.60;0.40;;;3.40;99.90;;;;;;5077912;28;20040;-57
2022/02/06 15:55:33;;;;;;;2.03;0.50;;;3.40;99.90;;;;;;5083161;28;20035;-60
2022/02/06 15:58:19;;;;;;;1.38;0.80;;;3.40;99.90;;;;;;5070440;28;20066;-62
2022/02/06 16:01:05;;;;;;;2.47;0.30;;;3.50;99.90;;;;;;5059009;28;20042;-61
2022/02/06 16:03:51;;;;;;;0.70;0.50;;;3.40;99.90;;;;;;5073876;28;20270;-62
2022/02/06 16:06:38;;;;;;;1.00;0.47;;;3.50;99.90;;;;;;5059733;28;20282;-61
2022/02/06 16:09:29;;;;;;;;;;;3.50;99.90;;;;;;5071622;28;20173;-60
2022/02/06 16:12:15;;;;;;;0.77;0.50;;;3.50;99.90;;;;;;5075800;28;19912;-60
2022/02/06 16:15:01;;;;;;;0.80;0.50;;;3.40;99.90;;;;;;5065251;28;20103;-60
2022/02/06 16:17:48;;;;;;;1.30;0.70;;;3.40;99.90;;;;;;5073561;28;20081;-59
2022/02/06 16:20:34;;;;;;;2.55;0.47;;;3.40;99.90;;;;;;5075853;28;20089;-60
2022/02/06 16:23:25;;;;;;;0.80;0.57;;;3.40;99.90;;;;;;5074226;28;20064;-62
2022/02/06 16:26:11;;;;;;;0.75;0.43;;;3.40;99.90;;;;;;5081124;28;20032;-61
2022/02/06 16:28:57;;;;;;;0.30;0.30;;;3.30;99.90;;;;;;5073959;28;20675;-62
2022/02/06 16:31:43;;;;;;;0.52;0.40;;;3.20;99.90;;;;;;5075689;28;20107;-60
2022/02/06 16:34:29;;;;;;;0.70;0.30;;;3.10;99.90;;;;;;5074301;28;20040;-62
2022/02/06 16:37:17;;;;;;;0.32;0.30;;;3.00;99.90;;;;;;5074886;28;20031;-61
2022/02/06 16:40:04;;;;;;;0.70;0.35;;;3.10;99.90;;;;;;5076031;28;20028;-61
2022/02/06 16:42:50;;;;;;;3.22;0.40;;;3.00;99.90;;;;;;5075485;28;20031;-61
2022/02/06 16:45:36;;;;;;;1.08;0.50;;;3.10;99.90;;;;;;5059154;28;20055;-61
2022/02/06 16:48:22;;;;;;;2.67;0.40;;;3.00;99.90;;;;;;5073142;28;20039;-61
2022/02/06 16:51:09;;;;;;;1.25;0.65;;;3.10;99.90;;;;;;5074373;28;20254;-61
2022/02/06 16:53:55;;;;;;;2.78;0.75;;;3.00;99.90;;;;;;5074102;28;20040;-60
2022/02/06 16:56:40;;;;;;;0.60;0.40;;;3.10;99.90;;;;;;5070920;28;20032;-58
2022/02/06 16:59:27;;;;;;;2.35;0.73;;;3.10;99.90;;;;;;5071346;28;20111;-60
2022/02/06 17:02:13;;;;;;;0.95;0.70;;;3.10;99.90;;;;;;5074825;28;20059;-60
2022/02/06 17:04:59;;;;;;;1.97;0.70;;;3.10;99.90;;;;;;5074090;28;20035;-60
2022/02/06 17:07:45;;;;;;;2.70;0.80;;;3.10;99.90;;;;;;5073643;28;20290;-60
2022/02/06 17:10:32;;;;;;;1.73;0.80;;;3.00;99.90;;;;;;5074474;28;20696;-58